Brandy Nicole — WDH3897 — position and weather

sailwx.info

Track history (hours):
 
Tides and Currents Weather Stations Pressure Air Temp Water Temp Dewpoint Dewpoint Depression Visibility Wind Speed Wind Dir Waves Ship Positions

Brandy Nicole

Owner: Broussard Brothers, Inc., Abbeville, LA. More information available from US FCC via Universal Licensing System and Coast Guard Vessel Documentation Center.

Last reported at 2017-Nov-24 08:46 UTC. Time now 2017-Nov-24 11:41 UTC.
Position N 29°40' W 092°03'.

; draft 2.2 m.

Type: Towing. MMSI: 367612050.

Date/timePositionNaut miles runAvg speedWind from/ knotsBaromVisibWave heightAir tempDewpointWater temp
2017-Nov-24 08:46N 29°40' W 092°03'2 7.6
2017-Nov-24 08:30N 29°42' W 092°04'4 7.7
2017-Nov-24 08:00N 29°45' W 092°07'3 6.4
2017-Nov-24 07:30N 29°47' W 092°10'1 2.2
2017-Nov-24 07:00N 29°47' W 092°11'0 0.0
2017-Nov-24 06:31N 29°47' W 092°11'0 0.0
2017-Nov-24 06:01N 29°47' W 092°11'0 0.0
2017-Nov-24 05:30N 29°47' W 092°11'0 0.0
2017-Nov-24 05:01N 29°47' W 092°11'0 0.0
2017-Nov-24 04:30N 29°47' W 092°11'0 0.0
2017-Nov-24 04:01N 29°47' W 092°11'0 0.0
2017-Nov-24 03:30N 29°47' W 092°11'0 0.0
2017-Nov-24 03:01N 29°47' W 092°11'0 0.0
2017-Nov-24 02:30N 29°47' W 092°11'0 0.0
2017-Nov-24 02:00N 29°47' W 092°11'0 0.0
2017-Nov-24 01:30N 29°47' W 092°11'0 0.0
2017-Nov-24 01:01N 29°47' W 092°11'0 0.0
2017-Nov-24 00:31N 29°47' W 092°11'0 0.0
2017-Nov-24 00:00N 29°47' W 092°11'0 0.0
2017-Nov-23 23:30N 29°47' W 092°11'0 0.0
2017-Nov-23 23:00N 29°47' W 092°11'0 0.0
2017-Nov-23 22:31N 29°47' W 092°11'0 0.0
2017-Nov-23 22:00N 29°47' W 092°11'0 0.0
2017-Nov-23 21:30N 29°47' W 092°11'0 0.0
2017-Nov-23 21:01N 29°47' W 092°11'0 0.0
2017-Nov-23 20:30N 29°47' W 092°11'0 0.0
2017-Nov-23 20:00N 29°47' W 092°11'0 0.0
2017-Nov-23 19:30N 29°47' W 092°11'0 0.0
2017-Nov-23 19:00N 29°47' W 092°11'0 0.0
2017-Nov-23 18:31N 29°47' W 092°11'0 0.0
2017-Nov-23 18:00N 29°47' W 092°11'0 0.0
2017-Nov-23 17:31N 29°47' W 092°11'0 0.0
2017-Nov-23 17:01N 29°47' W 092°11'0 0.0
2017-Nov-23 16:31N 29°47' W 092°11'0 0.0
2017-Nov-23 16:01N 29°47' W 092°11'0 0.0
2017-Nov-23 15:31N 29°47' W 092°11'0 0.0
2017-Nov-23 15:00N 29°47' W 092°11'0 0.0
2017-Nov-23 14:30N 29°47' W 092°11'0 0.0
2017-Nov-23 14:00N 29°47' W 092°11'0 0.0
2017-Nov-23 13:30N 29°47' W 092°11'0 0.0
2017-Nov-23 13:00N 29°47' W 092°11'0 0.0
2017-Nov-23 12:30N 29°47' W 092°11'0 0.0
2017-Nov-23 12:00N 29°47' W 092°11'0 0.0
2017-Nov-23 11:31N 29°47' W 092°11'0 0.0
2017-Nov-23 11:00N 29°47' W 092°11'0 0.0
2017-Nov-23 10:30N 29°47' W 092°11'0 0.0
2017-Nov-23 10:01N 29°47' W 092°11'0 0.0
2017-Nov-23 09:31N 29°47' W 092°11'0 0.0
2017-Nov-23 09:00N 29°47' W 092°11'0 0.0
2017-Nov-23 08:30N 29°47' W 092°11'0 0.0
2017-Nov-23 08:00N 29°47' W 092°11'0 0.0
2017-Nov-23 07:30N 29°47' W 092°11'0 0.0
2017-Nov-23 07:00N 29°47' W 092°11'0 0.0
2017-Nov-23 06:30N 29°47' W 092°11'0 0.0
2017-Nov-23 06:01N 29°47' W 092°11'0 0.0
2017-Nov-23 05:30N 29°47' W 092°11'0 0.0
2017-Nov-23 05:00N 29°47' W 092°11'0 0.0
2017-Nov-23 04:31N 29°47' W 092°11'0 0.0
2017-Nov-23 04:00N 29°47' W 092°11'0 0.0
2017-Nov-23 03:30N 29°47' W 092°11'0 0.0
2017-Nov-23 03:00N 29°47' W 092°11'0 0.0
2017-Nov-23 02:30N 29°47' W 092°11'0 0.0
2017-Nov-23 02:00N 29°47' W 092°11'0 0.0
2017-Nov-23 01:30N 29°47' W 092°11'0 0.0
2017-Nov-23 01:01N 29°47' W 092°11'0 0.0
2017-Nov-23 00:30N 29°47' W 092°11'0 0.0
2017-Nov-23 00:00N 29°47' W 092°11'0 0.0
2017-Nov-22 23:30N 29°47' W 092°11'1 1.0
2017-Nov-22 23:00N 29°47' W 092°11'1 2.7
2017-Nov-22 22:30N 29°47' W 092°09'3 6.9
2017-Nov-22 22:01N 29°48' W 092°05'3 6.8
2017-Nov-22 21:30N 29°49' W 092°02'  
2017-Nov-20 00:31N 29°47' W 092°11'0 0.0
2017-Nov-20 00:00N 29°47' W 092°11'0 0.0
2017-Nov-19 23:30N 29°47' W 092°11'0 0.0
2017-Nov-19 23:00N 29°47' W 092°11'0 0.0
2017-Nov-19 22:30N 29°47' W 092°11'0 0.0
2017-Nov-19 22:00N 29°47' W 092°11'0 0.0
2017-Nov-19 21:30N 29°47' W 092°11'0 0.0
2017-Nov-19 21:00N 29°47' W 092°11'1 1.1
2017-Nov-19 20:31N 29°47' W 092°11'3 5.1
2017-Nov-19 20:00N 29°47' W 092°08'3 6.6
2017-Nov-19 19:31N 29°48' W 092°04'61 7.7
2017-Nov-19 11:33N 29°34' W 090°56'4 9.0
2017-Nov-19 11:05N 29°32' W 090°51'1 9.0
2017-Nov-19 11:00N 29°32' W 090°51'4 8.7
2017-Nov-19 10:30N 29°32' W 090°46'3 5.9
2017-Nov-19 10:00N 29°34' W 090°43'2 3.1
2017-Nov-19 09:30N 29°33' W 090°42'1 2.0
2017-Nov-19 09:00N 29°34' W 090°42'1 2.1
2017-Nov-19 08:30N 29°34' W 090°43'4 8.4
2017-Nov-19 08:01N 29°32' W 090°48'63 8.0
2017-Nov-19 00:07N 29°50' W 091°58'2 9.5
2017-Nov-18 23:57N 29°50' W 091°59'4 8.2
2017-Nov-18 23:31N 29°49' W 092°03'4 8.9
2017-Nov-18 23:00N 29°47' W 092°08'3 5.4
2017-Nov-18 22:31N 29°47' W 092°11'0 0.0
2017-Nov-18 22:00N 29°47' W 092°11'0 0.0
2017-Nov-18 21:30N 29°47' W 092°11'0 0.0
2017-Nov-18 21:00N 29°47' W 092°11'0 0.0
2017-Nov-18 20:31N 29°47' W 092°11'0 0.0
2017-Nov-18 20:00N 29°47' W 092°11'0 0.0
2017-Nov-18 19:30N 29°47' W 092°11'0 0.0
2017-Nov-18 19:01N 29°47' W 092°11'0 0.0
2017-Nov-18 18:31N 29°47' W 092°11'0 0.0
2017-Nov-18 18:00N 29°47' W 092°11'0 0.0
2017-Nov-18 17:31N 29°47' W 092°11'0 0.0
2017-Nov-18 17:01N 29°47' W 092°11'0 0.0
2017-Nov-18 16:30N 29°47' W 092°11'0 0.0
2017-Nov-18 16:00N 29°47' W 092°11'0 0.1
2017-Nov-18 15:30N 29°47' W 092°11'0 0.1
2017-Nov-18 15:00N 29°47' W 092°11'1 1.6
2017-Nov-18 14:30N 29°47' W 092°10'0 0.1
2017-Nov-18 14:00N 29°47' W 092°10'0 0.0
2017-Nov-18 13:30N 29°47' W 092°10'0 0.1
2017-Nov-18 13:01N 29°47' W 092°10'0 0.0
2017-Nov-18 12:30N 29°47' W 092°10'0 0.0
2017-Nov-18 12:00N 29°47' W 092°10'0 0.0
2017-Nov-18 11:30N 29°47' W 092°10'0 0.0
2017-Nov-18 11:00N 29°47' W 092°10'0 0.0
2017-Nov-18 10:31N 29°47' W 092°10'0 0.0
2017-Nov-18 10:01N 29°47' W 092°10'0 0.0
2017-Nov-18 09:30N 29°47' W 092°10'0 0.0
2017-Nov-18 09:00N 29°47' W 092°10'0 0.1
2017-Nov-18 08:30N 29°47' W 092°10'0 0.0
2017-Nov-18 08:01N 29°47' W 092°10'0 0.0
2017-Nov-18 07:30N 29°47' W 092°10'0 0.0
2017-Nov-18 07:00N 29°47' W 092°10'0 0.0
2017-Nov-18 06:30N 29°47' W 092°10'0 0.0
2017-Nov-18 06:01N 29°47' W 092°10'0 0.1
2017-Nov-18 05:30N 29°47' W 092°10'2 4.1
2017-Nov-18 05:01N 29°46' W 092°08'3 6.3
2017-Nov-18 04:30N 29°43' W 092°06'4 5.5
2017-Nov-18 03:52N 29°41' W 092°03'6 0.3
2017-Nov-17 05:25N 29°34' W 092°03'4 8.4
2017-Nov-17 04:59N 29°37' W 092°00'4 7.8
2017-Nov-17 04:31N 29°40' W 092°03'3 6.8
2017-Nov-17 04:00N 29°43' W 092°05'4 7.5
2017-Nov-17 03:30N 29°46' W 092°08'2 4.6
2017-Nov-17 03:00N 29°47' W 092°10'1 1.9
2017-Nov-17 02:30N 29°47' W 092°11'0 0.0
2017-Nov-17 02:01N 29°47' W 092°11'0 0.0
2017-Nov-17 01:30N 29°47' W 092°11'0 0.0
2017-Nov-17 01:00N 29°47' W 092°11'0 0.0
2017-Nov-17 00:31N 29°47' W 092°11'0 0.0
2017-Nov-17 00:01N 29°47' W 092°11'0 0.0
2017-Nov-16 23:30N 29°47' W 092°11'0 0.0
2017-Nov-16 23:01N 29°47' W 092°11'0 0.0
2017-Nov-16 22:30N 29°47' W 092°11'0 0.0
2017-Nov-16 22:00N 29°47' W 092°11'0 0.0
2017-Nov-16 21:30N 29°47' W 092°11'1 1.7
2017-Nov-16 21:00N 29°47' W 092°10'0 0.3
2017-Nov-16 20:31N 29°47' W 092°10'0 0.4
2017-Nov-16 20:00N 29°47' W 092°10'0 0.0
2017-Nov-16 19:30N 29°47' W 092°10'0 0.0
2017-Nov-16 19:00N 29°47' W 092°10'0 0.0
2017-Nov-16 18:30N 29°47' W 092°10'0 0.0
2017-Nov-16 18:00N 29°47' W 092°10'1 1.1
2017-Nov-16 17:30N 29°47' W 092°11'0 0.5
2017-Nov-16 17:00N 29°47' W 092°11'0 0.6
2017-Nov-16 16:30N 29°47' W 092°11'0 0.2
2017-Nov-16 16:00N 29°47' W 092°11'0 0.3
2017-Nov-16 15:30N 29°47' W 092°11'0 0.0
2017-Nov-16 15:00N 29°47' W 092°11'1 1.7
2017-Nov-16 14:30N 29°47' W 092°10'0 0.0
2017-Nov-16 14:00N 29°47' W 092°10'0 0.0
2017-Nov-16 13:30N 29°47' W 092°10'0 0.0
2017-Nov-16 13:00N 29°47' W 092°10'0 0.0
2017-Nov-16 12:30N 29°47' W 092°10'0 0.0
2017-Nov-16 12:01N 29°47' W 092°10'0 0.0
2017-Nov-16 11:30N 29°47' W 092°10'0 0.0
2017-Nov-16 11:00N 29°47' W 092°10'0 0.0
2017-Nov-16 10:30N 29°47' W 092°10'0 0.0
2017-Nov-16 10:01N 29°47' W 092°10'0 0.0
2017-Nov-16 09:31N 29°47' W 092°10'0 0.0
2017-Nov-16 09:00N 29°47' W 092°10'0 0.0
2017-Nov-16 08:30N 29°47' W 092°10'0 0.0
2017-Nov-16 08:00N 29°47' W 092°10'0 0.0
2017-Nov-16 07:30N 29°47' W 092°10'0 0.0
2017-Nov-16 07:00N 29°47' W 092°10'0 0.0
2017-Nov-16 06:30N 29°47' W 092°10'0 0.1
2017-Nov-16 06:00N 29°47' W 092°10'3 5.6
2017-Nov-16 05:30N 29°45' W 092°07'4 7.7
2017-Nov-16 05:00N 29°42' W 092°05'4 7.0
2017-Nov-16 04:30N 29°39' W 092°02'4 7.3
2017-Nov-16 04:00N 29°36' W 092°01'6 0.5
2017-Nov-15 17:05N 29°41' W 092°04'1 7.4
2017-Nov-15 17:00N 29°41' W 092°04'4 7.2
2017-Nov-15 16:30N 29°44' W 092°07'4 7.3
2017-Nov-15 16:00N 29°47' W 092°10'1 2.4
2017-Nov-15 15:31N 29°47' W 092°11'0 0.0
2017-Nov-15 15:01N 29°47' W 092°11'0 0.0
2017-Nov-15 14:30N 29°47' W 092°11'0 0.0
2017-Nov-15 14:00N 29°47' W 092°11'0 0.0
2017-Nov-15 13:30N 29°47' W 092°11'0 0.0
2017-Nov-15 13:00N 29°47' W 092°11'0 0.0
2017-Nov-15 12:30N 29°47' W 092°11'0 0.0
2017-Nov-15 12:00N 29°47' W 092°11'0 0.0
2017-Nov-15 11:30N 29°47' W 092°11'0 0.0
2017-Nov-15 11:00N 29°47' W 092°11'0 0.0
2017-Nov-15 10:30N 29°47' W 092°11'0 0.0
2017-Nov-15 10:00N 29°47' W 092°11'0 0.0
2017-Nov-15 09:30N 29°47' W 092°11'0 0.0
2017-Nov-15 09:01N 29°47' W 092°11'0 0.0
2017-Nov-15 08:30N 29°47' W 092°11'0 0.0
2017-Nov-15 08:00N 29°47' W 092°11'0 0.0
2017-Nov-15 07:30N 29°47' W 092°11'0 0.0
2017-Nov-15 07:00N 29°47' W 092°11'0 0.0
2017-Nov-15 06:30N 29°47' W 092°11'0 0.0
2017-Nov-15 06:00N 29°47' W 092°11'0 0.0
2017-Nov-15 05:30N 29°47' W 092°11'0 0.0
2017-Nov-15 05:01N 29°47' W 092°11'0 0.0
2017-Nov-15 04:30N 29°47' W 092°11'0 0.0
2017-Nov-15 04:00N 29°47' W 092°11'0 0.0
2017-Nov-15 03:30N 29°47' W 092°11'0 0.0
2017-Nov-15 03:00N 29°47' W 092°11'0 0.0
2017-Nov-15 02:30N 29°47' W 092°11'0 0.0
2017-Nov-15 02:00N 29°47' W 092°11'0 0.0
2017-Nov-15 01:31N 29°47' W 092°11'0 0.0
2017-Nov-15 01:00N 29°47' W 092°11'0 0.0
2017-Nov-15 00:31N 29°47' W 092°11'0 0.0
2017-Nov-15 00:01N 29°47' W 092°11'0 0.0
2017-Nov-14 23:30N 29°47' W 092°11'0 0.0
2017-Nov-14 23:00N 29°47' W 092°11'0 0.0
2017-Nov-14 22:30N 29°47' W 092°11'0 0.0
2017-Nov-14 22:00N 29°47' W 092°11'0 0.0
2017-Nov-14 21:30N 29°47' W 092°11'0 0.0
2017-Nov-14 21:00N 29°47' W 092°11'0 0.0
2017-Nov-14 20:30N 29°47' W 092°11'0 0.0
2017-Nov-14 20:00N 29°47' W 092°11'0 0.0
2017-Nov-14 19:31N 29°47' W 092°11'0 0.0
2017-Nov-14 19:00N 29°47' W 092°11'0 0.0
2017-Nov-14 18:30N 29°47' W 092°11'0 0.0
2017-Nov-14 18:01N 29°47' W 092°11'0 0.0
2017-Nov-14 17:30N 29°47' W 092°11'0 0.0
2017-Nov-14 17:00N 29°47' W 092°11'0 0.0
2017-Nov-14 16:30N 29°47' W 092°11'0 0.0
2017-Nov-14 16:00N 29°47' W 092°11'0 0.0
2017-Nov-14 15:31N 29°47' W 092°11'0 0.0
2017-Nov-14 15:01N 29°47' W 092°11'0 0.0
2017-Nov-14 14:30N 29°47' W 092°11'0 0.0
2017-Nov-14 14:00N 29°47' W 092°11'2 4.8
2017-Nov-14 13:30N 29°47' W 092°09'2 4.3
2017-Nov-14 13:00N 29°49' W 092°08'0 0.1
2017-Nov-14 12:30N 29°49' W 092°08'3 4.7
2017-Nov-14 11:58N 29°47' W 092°09'1 2.2
2017-Nov-14 11:26N 29°47' W 092°10'1 1.8
2017-Nov-14 11:00N 29°47' W 092°11'0 0.0
2017-Nov-14 10:30N 29°47' W 092°11'0 0.0
2017-Nov-14 10:00N 29°47' W 092°11'0 0.0
2017-Nov-14 09:29N 29°47' W 092°11'0 0.0
2017-Nov-14 08:59N 29°47' W 092°11'  
Track history (hours):
 
Tides and Currents Weather Stations Pressure Air Temp Water Temp Dewpoint Dewpoint Depression Visibility Wind Speed Wind Dir Waves Ship Positions

Brandy Nicole

Owner: Broussard Brothers, Inc., Abbeville, LA. More information available from US FCC via Universal Licensing System and Coast Guard Vessel Documentation Center.

Last reported at 2017-Nov-24 08:46 UTC. Time now 2017-Nov-24 11:41 UTC.
Position N 29°40' W 092°03'.

; draft 2.2 m.

Type: Towing. MMSI: 367612050.

Date/timePositionNaut miles runAvg speedWind from/ knotsBaromVisibWave heightAir tempDewpointWater temp
2017-Nov-24 08:46N 29°40' W 092°03'2 7.6
2017-Nov-24 08:30N 29°42' W 092°04'4 7.7
2017-Nov-24 08:00N 29°45' W 092°07'3 6.4
2017-Nov-24 07:30N 29°47' W 092°10'1 2.2
2017-Nov-24 07:00N 29°47' W 092°11'0 0.0
2017-Nov-24 06:31N 29°47' W 092°11'0 0.0
2017-Nov-24 06:01N 29°47' W 092°11'0 0.0
2017-Nov-24 05:30N 29°47' W 092°11'0 0.0
2017-Nov-24 05:01N 29°47' W 092°11'0 0.0
2017-Nov-24 04:30N 29°47' W 092°11'0 0.0
2017-Nov-24 04:01N 29°47' W 092°11'0 0.0
2017-Nov-24 03:30N 29°47' W 092°11'0 0.0
2017-Nov-24 03:01N 29°47' W 092°11'0 0.0
2017-Nov-24 02:30N 29°47' W 092°11'0 0.0
2017-Nov-24 02:00N 29°47' W 092°11'0 0.0
2017-Nov-24 01:30N 29°47' W 092°11'0 0.0
2017-Nov-24 01:01N 29°47' W 092°11'0 0.0
2017-Nov-24 00:31N 29°47' W 092°11'0 0.0
2017-Nov-24 00:00N 29°47' W 092°11'0 0.0
2017-Nov-23 23:30N 29°47' W 092°11'0 0.0
2017-Nov-23 23:00N 29°47' W 092°11'0 0.0
2017-Nov-23 22:31N 29°47' W 092°11'0 0.0
2017-Nov-23 22:00N 29°47' W 092°11'0 0.0
2017-Nov-23 21:30N 29°47' W 092°11'0 0.0
2017-Nov-23 21:01N 29°47' W 092°11'0 0.0
2017-Nov-23 20:30N 29°47' W 092°11'0 0.0
2017-Nov-23 20:00N 29°47' W 092°11'0 0.0
2017-Nov-23 19:30N 29°47' W 092°11'0 0.0
2017-Nov-23 19:00N 29°47' W 092°11'0 0.0
2017-Nov-23 18:31N 29°47' W 092°11'0 0.0
2017-Nov-23 18:00N 29°47' W 092°11'0 0.0
2017-Nov-23 17:31N 29°47' W 092°11'0 0.0
2017-Nov-23 17:01N 29°47' W 092°11'0 0.0
2017-Nov-23 16:31N 29°47' W 092°11'0 0.0
2017-Nov-23 16:01N 29°47' W 092°11'0 0.0
2017-Nov-23 15:31N 29°47' W 092°11'0 0.0
2017-Nov-23 15:00N 29°47' W 092°11'0 0.0
2017-Nov-23 14:30N 29°47' W 092°11'0 0.0
2017-Nov-23 14:00N 29°47' W 092°11'0 0.0
2017-Nov-23 13:30N 29°47' W 092°11'0 0.0
2017-Nov-23 13:00N 29°47' W 092°11'0 0.0
2017-Nov-23 12:30N 29°47' W 092°11'0 0.0
2017-Nov-23 12:00N 29°47' W 092°11'0 0.0
2017-Nov-23 11:31N 29°47' W 092°11'0 0.0
2017-Nov-23 11:00N 29°47' W 092°11'0 0.0
2017-Nov-23 10:30N 29°47' W 092°11'0 0.0
2017-Nov-23 10:01N 29°47' W 092°11'0 0.0
2017-Nov-23 09:31N 29°47' W 092°11'0 0.0
2017-Nov-23 09:00N 29°47' W 092°11'0 0.0
2017-Nov-23 08:30N 29°47' W 092°11'0 0.0
2017-Nov-23 08:00N 29°47' W 092°11'0 0.0
2017-Nov-23 07:30N 29°47' W 092°11'0 0.0
2017-Nov-23 07:00N 29°47' W 092°11'0 0.0
2017-Nov-23 06:30N 29°47' W 092°11'0 0.0
2017-Nov-23 06:01N 29°47' W 092°11'0 0.0
2017-Nov-23 05:30N 29°47' W 092°11'0 0.0
2017-Nov-23 05:00N 29°47' W 092°11'0 0.0
2017-Nov-23 04:31N 29°47' W 092°11'0 0.0
2017-Nov-23 04:00N 29°47' W 092°11'0 0.0
2017-Nov-23 03:30N 29°47' W 092°11'0 0.0
2017-Nov-23 03:00N 29°47' W 092°11'0 0.0
2017-Nov-23 02:30N 29°47' W 092°11'0 0.0
2017-Nov-23 02:00N 29°47' W 092°11'0 0.0
2017-Nov-23 01:30N 29°47' W 092°11'0 0.0
2017-Nov-23 01:01N 29°47' W 092°11'0 0.0
2017-Nov-23 00:30N 29°47' W 092°11'0 0.0
2017-Nov-23 00:00N 29°47' W 092°11'0 0.0
2017-Nov-22 23:30N 29°47' W 092°11'1 1.0
2017-Nov-22 23:00N 29°47' W 092°11'1 2.7
2017-Nov-22 22:30N 29°47' W 092°09'3 6.9
2017-Nov-22 22:01N 29°48' W 092°05'3 6.8
2017-Nov-22 21:30N 29°49' W 092°02'  
2017-Nov-20 00:31N 29°47' W 092°11'0 0.0
2017-Nov-20 00:00N 29°47' W 092°11'0 0.0
2017-Nov-19 23:30N 29°47' W 092°11'0 0.0
2017-Nov-19 23:00N 29°47' W 092°11'0 0.0
2017-Nov-19 22:30N 29°47' W 092°11'0 0.0
2017-Nov-19 22:00N 29°47' W 092°11'0 0.0
2017-Nov-19 21:30N 29°47' W 092°11'0 0.0
2017-Nov-19 21:00N 29°47' W 092°11'1 1.1
2017-Nov-19 20:31N 29°47' W 092°11'3 5.1
2017-Nov-19 20:00N 29°47' W 092°08'3 6.6
2017-Nov-19 19:31N 29°48' W 092°04'61 7.7
2017-Nov-19 11:33N 29°34' W 090°56'4 9.0
2017-Nov-19 11:05N 29°32' W 090°51'1 9.0
2017-Nov-19 11:00N 29°32' W 090°51'4 8.7
2017-Nov-19 10:30N 29°32' W 090°46'3 5.9
2017-Nov-19 10:00N 29°34' W 090°43'2 3.1
2017-Nov-19 09:30N 29°33' W 090°42'1 2.0
2017-Nov-19 09:00N 29°34' W 090°42'1 2.1
2017-Nov-19 08:30N 29°34' W 090°43'4 8.4
2017-Nov-19 08:01N 29°32' W 090°48'63 8.0
2017-Nov-19 00:07N 29°50' W 091°58'2 9.5
2017-Nov-18 23:57N 29°50' W 091°59'4 8.2
2017-Nov-18 23:31N 29°49' W 092°03'4 8.9
2017-Nov-18 23:00N 29°47' W 092°08'3 5.4
2017-Nov-18 22:31N 29°47' W 092°11'0 0.0
2017-Nov-18 22:00N 29°47' W 092°11'0 0.0
2017-Nov-18 21:30N 29°47' W 092°11'0 0.0
2017-Nov-18 21:00N 29°47' W 092°11'0 0.0
2017-Nov-18 20:31N 29°47' W 092°11'0 0.0
2017-Nov-18 20:00N 29°47' W 092°11'0 0.0
2017-Nov-18 19:30N 29°47' W 092°11'0 0.0
2017-Nov-18 19:01N 29°47' W 092°11'0 0.0
2017-Nov-18 18:31N 29°47' W 092°11'0 0.0
2017-Nov-18 18:00N 29°47' W 092°11'0 0.0
2017-Nov-18 17:31N 29°47' W 092°11'0 0.0
2017-Nov-18 17:01N 29°47' W 092°11'0 0.0
2017-Nov-18 16:30N 29°47' W 092°11'0 0.0
2017-Nov-18 16:00N 29°47' W 092°11'0 0.1
2017-Nov-18 15:30N 29°47' W 092°11'0 0.1
2017-Nov-18 15:00N 29°47' W 092°11'1 1.6
2017-Nov-18 14:30N 29°47' W 092°10'0 0.1
2017-Nov-18 14:00N 29°47' W 092°10'0 0.0
2017-Nov-18 13:30N 29°47' W 092°10'0 0.1
2017-Nov-18 13:01N 29°47' W 092°10'0 0.0
2017-Nov-18 12:30N 29°47' W 092°10'0 0.0
2017-Nov-18 12:00N 29°47' W 092°10'0 0.0
2017-Nov-18 11:30N 29°47' W 092°10'0 0.0
2017-Nov-18 11:00N 29°47' W 092°10'0 0.0
2017-Nov-18 10:31N 29°47' W 092°10'0 0.0
2017-Nov-18 10:01N 29°47' W 092°10'0 0.0
2017-Nov-18 09:30N 29°47' W 092°10'0 0.0
2017-Nov-18 09:00N 29°47' W 092°10'0 0.1
2017-Nov-18 08:30N 29°47' W 092°10'0 0.0
2017-Nov-18 08:01N 29°47' W 092°10'0 0.0
2017-Nov-18 07:30N 29°47' W 092°10'0 0.0
2017-Nov-18 07:00N 29°47' W 092°10'0 0.0
2017-Nov-18 06:30N 29°47' W 092°10'0 0.0
2017-Nov-18 06:01N 29°47' W 092°10'0 0.1
2017-Nov-18 05:30N 29°47' W 092°10'2 4.1
2017-Nov-18 05:01N 29°46' W 092°08'3 6.3
2017-Nov-18 04:30N 29°43' W 092°06'4 5.5
2017-Nov-18 03:52N 29°41' W 092°03'6 0.3
2017-Nov-17 05:25N 29°34' W 092°03'4 8.4
2017-Nov-17 04:59N 29°37' W 092°00'4 7.8
2017-Nov-17 04:31N 29°40' W 092°03'3 6.8
2017-Nov-17 04:00N 29°43' W 092°05'4 7.5
2017-Nov-17 03:30N 29°46' W 092°08'2 4.6
2017-Nov-17 03:00N 29°47' W 092°10'1 1.9
2017-Nov-17 02:30N 29°47' W 092°11'0 0.0
2017-Nov-17 02:01N 29°47' W 092°11'0 0.0
2017-Nov-17 01:30N 29°47' W 092°11'0 0.0
2017-Nov-17 01:00N 29°47' W 092°11'0 0.0
2017-Nov-17 00:31N 29°47' W 092°11'0 0.0
2017-Nov-17 00:01N 29°47' W 092°11'0 0.0
2017-Nov-16 23:30N 29°47' W 092°11'0 0.0
2017-Nov-16 23:01N 29°47' W 092°11'0 0.0
2017-Nov-16 22:30N 29°47' W 092°11'0 0.0
2017-Nov-16 22:00N 29°47' W 092°11'0 0.0
2017-Nov-16 21:30N 29°47' W 092°11'1 1.7
2017-Nov-16 21:00N 29°47' W 092°10'0 0.3
2017-Nov-16 20:31N 29°47' W 092°10'0 0.4
2017-Nov-16 20:00N 29°47' W 092°10'0 0.0
2017-Nov-16 19:30N 29°47' W 092°10'0 0.0
2017-Nov-16 19:00N 29°47' W 092°10'0 0.0
2017-Nov-16 18:30N 29°47' W 092°10'0 0.0
2017-Nov-16 18:00N 29°47' W 092°10'1 1.1
2017-Nov-16 17:30N 29°47' W 092°11'0 0.5
2017-Nov-16 17:00N 29°47' W 092°11'0 0.6
2017-Nov-16 16:30N 29°47' W 092°11'0 0.2
2017-Nov-16 16:00N 29°47' W 092°11'0 0.3
2017-Nov-16 15:30N 29°47' W 092°11'0 0.0
2017-Nov-16 15:00N 29°47' W 092°11'1 1.7
2017-Nov-16 14:30N 29°47' W 092°10'0 0.0
2017-Nov-16 14:00N 29°47' W 092°10'0 0.0
2017-Nov-16 13:30N 29°47' W 092°10'0 0.0
2017-Nov-16 13:00N 29°47' W 092°10'0 0.0
2017-Nov-16 12:30N 29°47' W 092°10'0 0.0
2017-Nov-16 12:01N 29°47' W 092°10'0 0.0
2017-Nov-16 11:30N 29°47' W 092°10'0 0.0
2017-Nov-16 11:00N 29°47' W 092°10'0 0.0
2017-Nov-16 10:30N 29°47' W 092°10'0 0.0
2017-Nov-16 10:01N 29°47' W 092°10'0 0.0
2017-Nov-16 09:31N 29°47' W 092°10'0 0.0
2017-Nov-16 09:00N 29°47' W 092°10'0 0.0
2017-Nov-16 08:30N 29°47' W 092°10'0 0.0
2017-Nov-16 08:00N 29°47' W 092°10'0 0.0
2017-Nov-16 07:30N 29°47' W 092°10'0 0.0
2017-Nov-16 07:00N 29°47' W 092°10'0 0.0
2017-Nov-16 06:30N 29°47' W 092°10'0 0.1
2017-Nov-16 06:00N 29°47' W 092°10'3 5.6
2017-Nov-16 05:30N 29°45' W 092°07'4 7.7
2017-Nov-16 05:00N 29°42' W 092°05'4 7.0
2017-Nov-16 04:30N 29°39' W 092°02'4 7.3
2017-Nov-16 04:00N 29°36' W 092°01'6 0.5
2017-Nov-15 17:05N 29°41' W 092°04'1 7.4
2017-Nov-15 17:00N 29°41' W 092°04'4 7.2
2017-Nov-15 16:30N 29°44' W 092°07'4 7.3
2017-Nov-15 16:00N 29°47' W 092°10'1 2.4
2017-Nov-15 15:31N 29°47' W 092°11'0 0.0
2017-Nov-15 15:01N 29°47' W 092°11'0 0.0
2017-Nov-15 14:30N 29°47' W 092°11'0 0.0
2017-Nov-15 14:00N 29°47' W 092°11'0 0.0
2017-Nov-15 13:30N 29°47' W 092°11'0 0.0
2017-Nov-15 13:00N 29°47' W 092°11'0 0.0
2017-Nov-15 12:30N 29°47' W 092°11'0 0.0
2017-Nov-15 12:00N 29°47' W 092°11'0 0.0
2017-Nov-15 11:30N 29°47' W 092°11'0 0.0
2017-Nov-15 11:00N 29°47' W 092°11'0 0.0
2017-Nov-15 10:30N 29°47' W 092°11'0 0.0
2017-Nov-15 10:00N 29°47' W 092°11'0 0.0
2017-Nov-15 09:30N 29°47' W 092°11'0 0.0
2017-Nov-15 09:01N 29°47' W 092°11'0 0.0
2017-Nov-15 08:30N 29°47' W 092°11'0 0.0
2017-Nov-15 08:00N 29°47' W 092°11'0 0.0
2017-Nov-15 07:30N 29°47' W 092°11'0 0.0
2017-Nov-15 07:00N 29°47' W 092°11'0 0.0
2017-Nov-15 06:30N 29°47' W 092°11'0 0.0
2017-Nov-15 06:00N 29°47' W 092°11'0 0.0
2017-Nov-15 05:30N 29°47' W 092°11'0 0.0
2017-Nov-15 05:01N 29°47' W 092°11'0 0.0
2017-Nov-15 04:30N 29°47' W 092°11'0 0.0
2017-Nov-15 04:00N 29°47' W 092°11'0 0.0
2017-Nov-15 03:30N 29°47' W 092°11'0 0.0
2017-Nov-15 03:00N 29°47' W 092°11'0 0.0
2017-Nov-15 02:30N 29°47' W 092°11'0 0.0
2017-Nov-15 02:00N 29°47' W 092°11'0 0.0
2017-Nov-15 01:31N 29°47' W 092°11'0 0.0
2017-Nov-15 01:00N 29°47' W 092°11'0 0.0
2017-Nov-15 00:31N 29°47' W 092°11'0 0.0
2017-Nov-15 00:01N 29°47' W 092°11'0 0.0
2017-Nov-14 23:30N 29°47' W 092°11'0 0.0
2017-Nov-14 23:00N 29°47' W 092°11'0 0.0
2017-Nov-14 22:30N 29°47' W 092°11'0 0.0
2017-Nov-14 22:00N 29°47' W 092°11'0 0.0
2017-Nov-14 21:30N 29°47' W 092°11'0 0.0
2017-Nov-14 21:00N 29°47' W 092°11'0 0.0
2017-Nov-14 20:30N 29°47' W 092°11'0 0.0
2017-Nov-14 20:00N 29°47' W 092°11'0 0.0
2017-Nov-14 19:31N 29°47' W 092°11'0 0.0
2017-Nov-14 19:00N 29°47' W 092°11'0 0.0
2017-Nov-14 18:30N 29°47' W 092°11'0 0.0
2017-Nov-14 18:01N 29°47' W 092°11'0 0.0
2017-Nov-14 17:30N 29°47' W 092°11'0 0.0
2017-Nov-14 17:00N 29°47' W 092°11'0 0.0
2017-Nov-14 16:30N 29°47' W 092°11'0 0.0
2017-Nov-14 16:00N 29°47' W 092°11'0 0.0
2017-Nov-14 15:31N 29°47' W 092°11'0 0.0
2017-Nov-14 15:01N 29°47' W 092°11'0 0.0
2017-Nov-14 14:30N 29°47' W 092°11'0 0.0
2017-Nov-14 14:00N 29°47' W 092°11'2 4.8
2017-Nov-14 13:30N 29°47' W 092°09'2 4.3
2017-Nov-14 13:00N 29°49' W 092°08'0 0.1
2017-Nov-14 12:30N 29°49' W 092°08'3 4.7
2017-Nov-14 11:58N 29°47' W 092°09'1 2.2
2017-Nov-14 11:26N 29°47' W 092°10'1 1.8
2017-Nov-14 11:00N 29°47' W 092°11'0 0.0
2017-Nov-14 10:30N 29°47' W 092°11'0 0.0
2017-Nov-14 10:00N 29°47' W 092°11'0 0.0
2017-Nov-14 09:29N 29°47' W 092°11'0 0.0
2017-Nov-14 08:59N 29°47' W 092°11'  

Dump ship's entire track history